Time;durP1;ratioP1;P1;durP2;ratioP2;P2;SDS_P1;SDS_P2;PMS_P1;PMS_P2;Temp;Humidity;BMP_temperature;BMP_pressure;BME280_temperature;BME280_humidity;BME280_pressure;Samples;Min_cycle;Max_cycle;Signal;HPM_P1;HPM_P2
2020/12/29 06:01:54;;;;;;;20.50;10.03;;;0.60;97.30;;;;;;5401819;23;20485;-76
2020/12/29 06:04:21;;;;;;;18.40;9.40;;;0.60;97.30;;;;;;4915363;29;20561;-76
2020/12/29 06:06:48;;;;;;;25.30;10.47;;;0.50;97.30;;;;;;4915423;29;20441;-75
2020/12/29 06:09:18;;;;;;;22.53;10.13;;;0.50;97.30;;;;;;4915374;29;20447;-76
2020/12/29 06:11:46;;;;;;;19.10;9.80;;;0.40;97.30;;;;;;4915463;29;20532;-76
2020/12/29 06:14:17;;;;;;;20.70;9.77;;;0.40;97.30;;;;;;4915592;29;20417;-75
2020/12/29 06:16:44;;;;;;;19.57;9.40;;;0.30;97.30;;;;;;4915527;29;20461;-75
2020/12/29 06:19:18;;;;;;;22.43;10.17;;;0.20;97.30;;;;;;4915313;29;20417;-75
2020/12/29 06:21:52;;;;;;;21.63;10.03;;;0.20;97.30;;;;;;4916668;29;20495;-76
2020/12/29 06:24:19;;;;;;;23.00;9.80;;;0.20;97.30;;;;;;4915227;29;21008;-76
2020/12/29 06:26:48;;;;;;;23.30;10.67;;;0.20;97.30;;;;;;4915514;29;20453;-75
2020/12/29 06:29:19;;;;;;;19.03;9.63;;;0.20;97.30;;;;;;4915414;29;20857;-77
2020/12/29 06:31:46;;;;;;;20.97;9.63;;;0.30;97.30;;;;;;4915476;29;20534;-76
2020/12/29 06:34:17;;;;;;;20.50;9.90;;;0.30;97.30;;;;;;4913513;29;20440;-76
2020/12/29 06:36:44;;;;;;;22.03;8.90;;;0.30;97.30;;;;;;4914614;29;20501;-76
2020/12/29 06:39:13;;;;;;;20.20;9.27;;;0.30;97.30;;;;;;4914486;29;20432;-76
2020/12/29 06:41:41;;;;;;;22.33;10.70;;;0.30;97.30;;;;;;4915389;29;20440;-76
2020/12/29 06:44:10;;;;;;;17.83;8.70;;;0.30;97.30;;;;;;4915032;29;20500;-76
2020/12/29 06:46:35;;;;;;;22.63;9.70;;;0.30;97.30;;;;;;4931101;29;20511;-77
2020/12/29 06:49:23;;;;;;;20.83;10.50;;;0.30;97.30;;;;;;4914841;29;20464;-76
2020/12/29 06:52:17;;;;;;;17.83;8.20;;;0.30;97.30;;;;;;4930918;29;20674;-76
2020/12/29 06:54:53;;;;;;;19.43;9.33;;;0.30;97.30;;;;;;4915159;29;20463;-77
2020/12/29 06:57:36;;;;;;;18.50;8.53;;;0.20;97.30;;;;;;4915116;29;20530;-77
2020/12/29 07:00:11;;;;;;;17.50;8.43;;;0.20;97.30;;;;;;4915245;29;20419;-78
2020/12/29 07:02:38;;;;;;;21.33;9.60;;;0.30;97.30;;;;;;4915007;29;20474;-78
2020/12/29 07:05:23;;;;;;;17.63;9.13;;;0.30;97.30;;;;;;4915098;29;20464;-77
2020/12/29 07:08:00;;;;;;;16.63;8.97;;;0.30;97.30;;;;;;4917680;29;20492;-77
2020/12/29 07:10:41;;;;;;;19.87;9.27;;;0.30;97.30;;;;;;4918009;29;20934;-76
2020/12/29 07:13:15;;;;;;;20.00;9.17;;;0.30;97.30;;;;;;4918645;29;20499;-76
2020/12/29 07:15:55;;;;;;;17.20;9.10;;;0.30;97.30;;;;;;4918490;29;20444;-77
2020/12/29 07:18:27;;;;;;;18.57;9.37;;;0.20;97.30;;;;;;4918292;29;20432;-77
2020/12/29 07:21:21;;;;;;;15.47;8.67;;;0.20;97.30;;;;;;4918553;29;20495;-77
2020/12/29 07:23:51;;;;;;;18.83;9.13;;;0.20;97.30;;;;;;4918107;29;20456;-77
2020/12/29 07:26:19;;;;;;;16.93;7.93;;;0.20;97.30;;;;;;4918278;29;20471;-76
2020/12/29 07:28:45;;;;;;;16.20;8.50;;;0.10;97.30;;;;;;4918139;29;20417;-77
2020/12/29 07:31:16;;;;;;;16.50;7.60;;;0.10;97.30;;;;;;4918621;29;20441;-76
2020/12/29 07:33:54;;;;;;;19.57;8.30;;;0.00;97.30;;;;;;4918495;29;20199;-76
2020/12/29 07:36:21;;;;;;;14.97;8.37;;;0.00;97.30;;;;;;4918376;29;20793;-77
2020/12/29 07:38:51;;;;;;;17.10;8.37;;;0.10;97.30;;;;;;4917893;29;20420;-77
2020/12/29 07:41:18;;;;;;;18.10;8.10;;;0.10;97.30;;;;;;4917970;29;20503;-77
2020/12/29 07:43:47;;;;;;;12.70;7.80;;;0.30;97.30;;;;;;4918237;29;20467;-77
2020/12/29 07:46:13;;;;;;;16.57;7.93;;;0.30;97.30;;;;;;4918906;29;20514;-77
2020/12/29 07:48:40;;;;;;;18.33;7.93;;;0.40;97.30;;;;;;4918476;29;20424;-76
2020/12/29 07:51:07;;;;;;;15.80;7.60;;;0.50;97.30;;;;;;4919321;29;20444;-76
2020/12/29 07:53:33;;;;;;;13.47;7.60;;;0.60;97.30;;;;;;4917800;29;20470;-76
2020/12/29 07:55:59;;;;;;;14.30;8.40;;;0.60;97.30;;;;;;4918117;29;20421;-76
2020/12/29 07:58:25;;;;;;;14.50;7.70;;;0.70;97.30;;;;;;4918301;29;20489;-77
2020/12/29 08:00:51;;;;;;;15.53;8.63;;;0.80;97.30;;;;;;4918286;29;20547;-77
2020/12/29 08:03:18;;;;;;;12.63;7.37;;;0.90;97.30;;;;;;4917946;29;20472;-77
2020/12/29 08:05:45;;;;;;;13.50;6.97;;;1.00;97.30;;;;;;4917352;29;20421;-77
2020/12/29 08:08:12;;;;;;;14.40;7.47;;;1.10;97.30;;;;;;4917192;29;20424;-77
2020/12/29 08:10:43;;;;;;;13.27;6.70;;;1.30;97.30;;;;;;4917287;29;20460;-76
2020/12/29 08:13:10;;;;;;;13.60;7.13;;;1.40;97.30;;;;;;4917391;29;20977;-75
2020/12/29 08:15:43;;;;;;;13.80;7.00;;;1.50;97.30;;;;;;4917107;29;20424;-76
2020/12/29 08:18:14;;;;;;;12.07;6.50;;;1.60;97.30;;;;;;4915982;29;20730;-76
2020/12/29 08:20:57;;;;;;;14.53;7.13;;;1.60;97.30;;;;;;4917242;29;20559;-76
2020/12/29 08:23:25;;;;;;;12.93;7.40;;;1.70;97.30;;;;;;4918419;29;20448;-75
2020/12/29 08:26:01;;;;;;;14.60;7.40;;;1.80;97.30;;;;;;4917058;29;20447;-75
2020/12/29 08:28:33;;;;;;;14.93;6.90;;;1.90;97.30;;;;;;4917262;29;20421;-75
2020/12/29 08:31:04;;;;;;;11.60;6.43;;;2.00;97.30;;;;;;4918284;29;20433;-74
2020/12/29 08:33:31;;;;;;;13.93;7.70;;;2.10;97.30;;;;;;4917091;29;20449;-76
2020/12/29 08:36:01;;;;;;;11.37;6.10;;;2.20;97.30;;;;;;4917183;29;20436;-75
2020/12/29 08:38:28;;;;;;;10.83;6.50;;;2.30;97.30;;;;;;4916929;29;20475;-75
2020/12/29 08:41:28;;;;;;;9.27;5.33;;;2.40;97.30;;;;;;4918139;29;20440;-75
2020/12/29 08:43:54;;;;;;;13.23;6.23;;;2.60;97.30;;;;;;4913525;29;20811;-74
2020/12/29 08:46:23;;;;;;;9.93;6.80;;;2.70;97.30;;;;;;4916997;29;20427;-75
2020/12/29 08:48:57;;;;;;;10.23;5.80;;;2.80;97.30;;;;;;4916818;29;20420;-74
2020/12/29 08:51:30;;;;;;;9.90;6.20;;;3.00;97.30;;;;;;4917950;29;20436;-74
2020/12/29 08:54:18;;;;;;;10.50;6.47;;;3.00;97.30;;;;;;4917958;29;20488;-74
2020/12/29 08:56:45;;;;;;;10.70;5.53;;;3.00;97.30;;;;;;4916825;29;20453;-75
2020/12/29 08:59:17;;;;;;;9.70;4.90;;;3.00;97.30;;;;;;4916685;29;20428;-74
2020/12/29 09:01:56;;;;;;;8.80;5.60;;;3.10;97.30;;;;;;4916479;29;20460;-74
2020/12/29 09:04:24;;;;;;;7.47;5.30;;;3.10;97.30;;;;;;4916517;29;20874;-75
2020/12/29 09:07:06;;;;;;;11.13;6.27;;;3.10;97.30;;;;;;4917642;29;20424;-75
2020/12/29 09:09:50;;;;;;;10.80;5.70;;;3.10;97.30;;;;;;4916764;29;20950;-75
2020/12/29 09:12:17;;;;;;;8.93;5.50;;;3.20;97.30;;;;;;4916489;29;20496;-74
2020/12/29 09:14:51;;;;;;;7.80;4.70;;;3.30;97.30;;;;;;4917439;29;20421;-74
2020/12/29 09:17:17;;;;;;;8.57;5.80;;;3.50;97.30;;;;;;4916036;29;20432;-75
2020/12/29 09:20:03;;;;;;;7.20;4.97;;;3.70;97.30;;;;;;4917569;29;20427;-74
2020/12/29 09:22:28;;;;;;;8.10;4.77;;;3.90;97.30;;;;;;4917517;29;20537;-75
2020/12/29 09:24:54;;;;;;;10.07;5.10;;;4.00;97.30;;;;;;4916212;29;20559;-75
2020/12/29 09:27:31;;;;;;;12.13;5.70;;;4.10;97.30;;;;;;4916116;29;20232;-74
2020/12/29 09:29:57;;;;;;;8.17;5.13;;;4.20;97.30;;;;;;4915846;29;20665;-74
2020/12/29 09:32:24;;;;;;;7.30;5.00;;;4.20;97.30;;;;;;4916255;29;20444;-75
2020/12/29 09:34:50;;;;;;;7.87;4.90;;;4.20;97.30;;;;;;4916228;29;20946;-75
2020/12/29 09:37:17;;;;;;;9.27;5.07;;;4.30;97.30;;;;;;4915999;29;20520;-74
2020/12/29 09:39:44;;;;;;;10.47;5.27;;;4.30;97.30;;;;;;4916173;29;20421;-73
2020/12/29 09:42:10;;;;;;;8.07;4.73;;;4.40;97.30;;;;;;4915957;29;20448;-73
2020/12/29 09:44:36;;;;;;;7.63;4.73;;;4.50;97.30;;;;;;4916053;29;20467;-73
2020/12/29 09:47:02;;;;;;;6.57;4.33;;;4.60;97.30;;;;;;4917137;29;20416;-73
2020/12/29 09:49:28;;;;;;;7.73;4.80;;;4.70;97.30;;;;;;4916098;29;20416;-73
2020/12/29 09:51:53;;;;;;;10.70;4.60;;;4.70;97.30;;;;;;4916002;29;20443;-74
2020/12/29 09:54:19;;;;;;;6.63;4.50;;;4.60;97.30;;;;;;4916016;29;20204;-73
2020/12/29 09:56:45;;;;;;;5.50;4.40;;;4.60;97.30;;;;;;4916094;29;20265;-74
2020/12/29 09:59:11;;;;;;;8.70;5.07;;;4.50;97.30;;;;;;4915912;29;21050;-75
2020/12/29 10:01:37;;;;;;;7.30;4.90;;;4.50;97.30;;;;;;4915724;29;20934;-75
2020/12/29 10:04:03;;;;;;;7.50;5.33;;;4.40;97.30;;;;;;4917130;29;20739;-75
2020/12/29 10:06:28;;;;;;;8.27;5.57;;;4.40;97.30;;;;;;4915925;29;20661;-75
2020/12/29 10:08:54;;;;;;;9.10;4.57;;;4.40;97.30;;;;;;4915615;29;20176;-75
2020/12/29 10:11:19;;;;;;;7.50;4.77;;;4.40;97.30;;;;;;4915618;29;20646;-74
2020/12/29 10:13:45;;;;;;;8.27;4.77;;;4.40;97.30;;;;;;4915805;29;20260;-74
2020/12/29 10:16:11;;;;;;;11.50;5.93;;;4.40;97.30;;;;;;4917039;29;20182;-75
2020/12/29 10:18:38;;;;;;;7.87;4.90;;;4.40;97.30;;;;;;4915870;29;20645;-74
2020/12/29 10:21:03;;;;;;;7.27;4.60;;;4.40;97.30;;;;;;4915841;29;20224;-73
2020/12/29 10:23:29;;;;;;;6.80;4.70;;;4.50;97.30;;;;;;4917006;29;20860;-74
2020/12/29 10:25:55;;;;;;;8.63;5.00;;;4.50;97.30;;;;;;4915674;29;20564;-73
2020/12/29 10:28:20;;;;;;;7.67;4.60;;;4.50;97.30;;;;;;4915553;29;20639;-74
2020/12/29 10:30:47;;;;;;;6.40;4.63;;;4.60;97.30;;;;;;4915671;29;20204;-74
2020/12/29 10:33:14;;;;;;;7.43;4.03;;;4.60;97.30;;;;;;4915703;29;20529;-74
2020/12/29 10:35:39;;;;;;;6.80;4.40;;;4.60;97.30;;;;;;4916586;29;20511;-74
2020/12/29 10:38:05;;;;;;;5.83;3.93;;;4.70;97.30;;;;;;4915442;29;20662;-72
2020/12/29 10:40:31;;;;;;;8.77;4.43;;;4.70;97.30;;;;;;4916870;29;20602;-73
2020/12/29 10:42:56;;;;;;;7.93;5.03;;;4.80;97.30;;;;;;4918764;29;20181;-73
2020/12/29 10:45:22;;;;;;;7.70;4.93;;;4.90;97.30;;;;;;4919224;29;20185;-73
2020/12/29 10:47:48;;;;;;;7.20;4.83;;;5.00;97.30;;;;;;4919201;29;20528;-73
2020/12/29 10:50:13;;;;;;;9.03;5.40;;;5.10;97.30;;;;;;4919186;29;20185;-73
2020/12/29 10:52:39;;;;;;;5.93;4.17;;;5.10;97.30;;;;;;4919024;29;20263;-73
2020/12/29 10:55:05;;;;;;;5.67;3.70;;;5.10;97.30;;;;;;4919125;29;20232;-73
2020/12/29 10:57:32;;;;;;;5.83;4.20;;;5.20;97.30;;;;;;4918755;29;20180;-73
2020/12/29 10:59:58;;;;;;;13.13;7.10;;;5.20;97.30;;;;;;4920241;29;20662;-73
2020/12/29 11:02:24;;;;;;;8.30;4.90;;;5.20;97.30;;;;;;4918808;29;20460;-73
2020/12/29 11:04:49;;;;;;;6.93;3.80;;;5.20;97.30;;;;;;4918794;29;20219;-73
2020/12/29 11:07:15;;;;;;;13.00;4.70;;;5.20;97.30;;;;;;4918617;29;20183;-73
2020/12/29 11:09:41;;;;;;;4.33;3.33;;;5.30;97.30;;;;;;4918782;29;20631;-73
2020/12/29 11:12:06;;;;;;;4.17;2.60;;;5.30;97.30;;;;;;4918944;29;20196;-73
2020/12/29 11:14:32;;;;;;;8.83;4.67;;;5.30;97.30;;;;;;4918813;29;20586;-73
2020/12/29 11:16:58;;;;;;;2.87;2.40;;;5.30;97.30;;;;;;4918354;29;20189;-74
2020/12/29 11:19:24;;;;;;;4.43;2.80;;;5.30;97.30;;;;;;4917657;29;20235;-73
2020/12/29 11:21:50;;;;;;;6.27;2.87;;;5.30;97.30;;;;;;4918870;29;20208;-75
2020/12/29 11:24:16;;;;;;;2.90;2.40;;;5.30;97.30;;;;;;4918461;29;20468;-73
2020/12/29 11:26:43;;;;;;;2.90;1.90;;;5.30;97.30;;;;;;4918436;29;20556;-73
2020/12/29 11:29:09;;;;;;;4.63;2.37;;;5.30;97.30;;;;;;4919345;29;20435;-73
2020/12/29 11:31:35;;;;;;;3.70;2.00;;;5.30;97.30;;;;;;4918634;29;20445;-75
2020/12/29 11:34:01;;;;;;;3.37;2.30;;;5.30;97.30;;;;;;4931003;29;20431;-73
2020/12/29 11:36:28;;;;;;;5.97;3.03;;;5.30;97.30;;;;;;4922455;29;20416;-73
2020/12/29 11:38:54;;;;;;;4.77;3.00;;;5.30;97.30;;;;;;4926588;29;20527;-74
2020/12/29 11:41:20;;;;;;;6.70;3.20;;;5.40;97.30;;;;;;4920733;29;20476;-72
2020/12/29 11:43:46;;;;;;;10.30;4.03;;;5.40;97.30;;;;;;4918088;29;20456;-73
2020/12/29 11:46:12;;;;;;;7.00;3.00;;;5.40;97.30;;;;;;4916080;29;20185;-72
2020/12/29 11:48:38;;;;;;;4.93;2.60;;;5.40;97.30;;;;;;4927383;29;20187;-73
2020/12/29 11:51:13;;;;;;;3.50;2.10;;;5.40;97.30;;;;;;4937034;29;20570;-74
2020/12/29 11:53:40;;;;;;;2.70;1.70;;;5.40;97.30;;;;;;4921531;29;20476;-73
2020/12/29 11:56:09;;;;;;;2.27;2.00;;;5.40;97.30;;;;;;4899306;29;20460;-73
2020/12/29 11:58:34;;;;;;;2.87;2.20;;;5.40;97.30;;;;;;4899069;29;20429;-73
2020/12/29 12:01:00;;;;;;;6.13;3.03;;;5.40;97.30;;;;;;4898944;29;20540;-73
2020/12/29 12:03:26;;;;;;;3.17;2.20;;;5.40;97.30;;;;;;4919353;29;20235;-73
2020/12/29 12:05:51;;;;;;;3.23;2.47;;;5.30;97.30;;;;;;4936751;29;20227;-73
2020/12/29 12:08:17;;;;;;;11.30;4.20;;;5.40;97.30;;;;;;4936549;29;20216;-73
2020/12/29 12:10:43;;;;;;;8.83;4.70;;;5.40;97.30;;;;;;4936535;29;20263;-73
2020/12/29 12:13:09;;;;;;;8.93;4.50;;;5.40;97.30;;;;;;4919669;29;20666;-73
2020/12/29 12:15:34;;;;;;;12.90;5.53;;;5.40;97.30;;;;;;4933628;29;20192;-73
2020/12/29 12:18:00;;;;;;;7.33;3.60;;;5.40;97.30;;;;;;4917087;29;20417;-74
2020/12/29 12:20:26;;;;;;;6.17;3.73;;;5.40;97.30;;;;;;5202697;23;20744;-73
2020/12/29 12:22:51;;;;;;;2.20;2.00;;;5.40;97.30;;;;;;4897818;29;20673;-73
2020/12/29 12:25:17;;;;;;;6.43;3.90;;;5.40;97.30;;;;;;4895250;29;20181;-73
2020/12/29 12:27:43;;;;;;;2.50;1.90;;;5.40;97.30;;;;;;4887169;29;20598;-73
2020/12/29 12:30:09;;;;;;;5.97;2.83;;;5.40;97.30;;;;;;4876476;29;20703;-73
2020/12/29 12:32:34;;;;;;;2.20;2.10;;;5.40;97.30;;;;;;4860662;29;20416;-73
2020/12/29 12:35:00;;;;;;;2.90;1.80;;;5.40;97.30;;;;;;4860751;29;20202;-73
2020/12/29 12:37:26;;;;;;;2.50;1.80;;;5.40;97.30;;;;;;4879065;29;20193;-73
2020/12/29 12:39:51;;;;;;;5.53;2.10;;;5.30;97.30;;;;;;4861857;29;20254;-73
2020/12/29 12:42:20;;;;;;;2.33;1.80;;;5.30;97.30;;;;;;4862000;29;20182;-73
2020/12/29 12:44:46;;;;;;;4.07;1.87;;;5.20;97.30;;;;;;4860725;29;20213;-72
2020/12/29 12:47:12;;;;;;;3.10;1.90;;;5.20;97.30;;;;;;4891513;29;20925;-73
2020/12/29 12:49:37;;;;;;;1.73;1.63;;;5.10;97.30;;;;;;4859956;29;20355;-73
2020/12/29 12:52:03;;;;;;;4.03;2.43;;;5.00;97.30;;;;;;4860630;29;20190;-74
2020/12/29 12:54:32;;;;;;;2.73;2.00;;;4.90;97.30;;;;;;4865189;29;20190;-74
2020/12/29 12:56:59;;;;;;;2.17;2.00;;;4.80;97.30;;;;;;4879723;29;20640;-75
2020/12/29 12:59:26;;;;;;;1.93;1.90;;;4.80;97.30;;;;;;4880127;29;20427;-75
2020/12/29 13:01:53;;;;;;;2.27;1.90;;;4.80;97.30;;;;;;4878835;29;20441;-74
2020/12/29 13:04:20;;;;;;;1.57;1.50;;;4.80;97.30;;;;;;4879208;29;20454;-74
2020/12/29 13:06:46;;;;;;;1.87;1.60;;;4.80;97.30;;;;;;4878921;29;20505;-74
2020/12/29 13:09:11;;;;;;;2.90;1.70;;;4.80;97.30;;;;;;4879815;29;20905;-75
2020/12/29 13:11:37;;;;;;;2.33;1.70;;;4.80;97.30;;;;;;4879763;29;20281;-74
2020/12/29 13:14:03;;;;;;;1.50;1.50;;;4.90;97.30;;;;;;4877290;29;20190;-74
2020/12/29 13:16:30;;;;;;;2.73;1.97;;;4.80;97.30;;;;;;4888855;29;20193;-74
2020/12/29 13:18:56;;;;;;;3.77;2.70;;;4.80;97.30;;;;;;4888872;29;20185;-75
2020/12/29 13:21:22;;;;;;;1.70;1.60;;;4.80;97.30;;;;;;4887088;29;20652;-75
2020/12/29 13:23:47;;;;;;;2.33;2.00;;;4.80;97.30;;;;;;4878534;29;20748;-74
2020/12/29 13:26:14;;;;;;;3.40;2.07;;;4.80;97.30;;;;;;4880146;29;20177;-75
2020/12/29 13:28:42;;;;;;;2.60;1.97;;;4.80;97.30;;;;;;4863402;29;20234;-74
2020/12/29 13:31:09;;;;;;;1.70;1.67;;;4.80;97.30;;;;;;4876366;29;20503;-75
2020/12/29 13:33:40;;;;;;;1.70;1.60;;;4.80;97.30;;;;;;4850411;29;20494;-75
2020/12/29 13:36:09;;;;;;;1.90;1.80;;;4.80;97.30;;;;;;4878929;29;20514;-75
2020/12/29 13:38:36;;;;;;;1.63;1.50;;;4.80;97.30;;;;;;4877549;29;20431;-75
2020/12/29 13:41:03;;;;;;;1.63;1.40;;;4.80;97.30;;;;;;4878133;29;20494;-74
2020/12/29 13:43:33;;;;;;;2.40;1.60;;;4.80;97.30;;;;;;4879457;29;20490;-75
2020/12/29 13:46:00;;;;;;;1.50;1.40;;;4.70;97.30;;;;;;4863094;29;20844;-75
2020/12/29 13:48:26;;;;;;;2.10;1.83;;;4.70;97.30;;;;;;4863113;29;20780;-74
2020/12/29 13:50:52;;;;;;;2.30;2.07;;;4.70;97.30;;;;;;4878350;29;20509;-74
2020/12/29 13:53:19;;;;;;;1.37;1.27;;;4.70;97.30;;;;;;4879545;29;20426;-75
2020/12/29 13:55:46;;;;;;;1.63;1.60;;;4.70;97.30;;;;;;4879459;29;20924;-74
2020/12/29 13:58:13;;;;;;;1.60;1.50;;;4.70;97.30;;;;;;4878350;29;20433;-74
2020/12/29 14:00:40;;;;;;;1.87;1.77;;;4.70;97.30;;;;;;4877886;29;20487;-75
2020/12/29 14:03:07;;;;;;;7.70;2.00;;;4.70;97.30;;;;;;4878217;29;20430;-74
2020/12/29 14:05:36;;;;;;;4.70;3.03;;;4.70;97.30;;;;;;4879238;29;20418;-75
2020/12/29 14:08:05;;;;;;;1.73;1.63;;;4.70;97.30;;;;;;4878036;29;20426;-75
2020/12/29 14:10:35;;;;;;;1.67;1.47;;;4.70;97.30;;;;;;4878036;29;20446;-75
2020/12/29 14:13:01;;;;;;;2.10;1.67;;;4.70;97.30;;;;;;4879325;29;20415;-75
2020/12/29 14:15:29;;;;;;;1.97;1.73;;;4.80;97.30;;;;;;4880367;29;20410;-74
2020/12/29 14:17:55;;;;;;;2.40;1.80;;;4.80;97.30;;;;;;4882977;29;20882;-74
2020/12/29 14:20:22;;;;;;;1.57;1.50;;;4.80;97.30;;;;;;4881814;29;21123;-75
2020/12/29 14:22:48;;;;;;;1.67;1.63;;;4.80;97.30;;;;;;4866515;29;20433;-74
2020/12/29 14:25:15;;;;;;;1.93;1.90;;;4.70;97.30;;;;;;4881741;29;20426;-75
2020/12/29 14:27:43;;;;;;;2.47;2.20;;;4.80;97.30;;;;;;4881633;29;20458;-74
2020/12/29 14:30:09;;;;;;;2.30;2.13;;;4.80;97.30;;;;;;4881401;29;20446;-74
2020/12/29 14:32:35;;;;;;;1.70;1.60;;;4.80;97.30;;;;;;4882617;29;20461;-75
2020/12/29 14:35:01;;;;;;;2.50;2.10;;;4.80;97.30;;;;;;4881530;29;20450;-75
2020/12/29 14:37:27;;;;;;;2.13;1.60;;;4.80;97.30;;;;;;4881160;29;20970;-76
2020/12/29 14:39:53;;;;;;;4.03;2.20;;;4.80;97.30;;;;;;4881515;29;20204;-75
2020/12/29 14:42:20;;;;;;;3.70;2.20;;;4.80;97.30;;;;;;4881362;29;20418;-74
2020/12/29 14:44:47;;;;;;;2.00;1.87;;;4.80;97.30;;;;;;4881378;29;20462;-75
2020/12/29 14:47:13;;;;;;;2.77;2.20;;;4.80;97.30;;;;;;4881191;29;20450;-75
2020/12/29 14:49:39;;;;;;;2.57;2.00;;;4.80;97.30;;;;;;4881442;29;20458;-76
2020/12/29 14:52:05;;;;;;;2.23;1.87;;;4.80;97.30;;;;;;4881178;29;20452;-75
2020/12/29 14:54:36;;;;;;;2.77;2.30;;;4.80;97.30;;;;;;4881092;29;20434;-75
2020/12/29 14:57:03;;;;;;;2.10;1.80;;;4.80;97.30;;;;;;4882211;29;20469;-75
2020/12/29 14:59:29;;;;;;;6.43;2.90;;;4.80;97.30;;;;;;4880925;29;20800;-75
2020/12/29 15:01:54;;;;;;;5.43;2.73;;;4.80;97.30;;;;;;4881286;29;20429;-75
2020/12/29 15:04:20;;;;;;;3.23;2.10;;;4.80;97.30;;;;;;4879926;29;20485;-76
2020/12/29 15:06:47;;;;;;;2.53;1.93;;;4.80;97.30;;;;;;4881093;29;20525;-74
2020/12/29 15:09:13;;;;;;;2.57;2.20;;;4.80;97.30;;;;;;4880460;29;20475;-73
2020/12/29 15:11:39;;;;;;;3.37;2.33;;;4.80;97.30;;;;;;4881832;29;20458;-74
2020/12/29 15:14:08;;;;;;;3.00;2.37;;;4.70;97.30;;;;;;4881742;29;20426;-74
2020/12/29 15:16:35;;;;;;;2.70;2.30;;;4.70;97.30;;;;;;4881819;29;20180;-73
2020/12/29 15:19:05;;;;;;;2.40;2.27;;;4.70;97.30;;;;;;4880596;29;20796;-74
2020/12/29 15:21:34;;;;;;;3.07;2.30;;;4.70;97.30;;;;;;4880422;29;20510;-74
2020/12/29 15:24:01;;;;;;;4.03;2.23;;;4.70;97.30;;;;;;4880298;29;20526;-74
2020/12/29 15:26:27;;;;;;;3.67;2.27;;;4.70;97.30;;;;;;4880295;29;20419;-72
2020/12/29 15:28:53;;;;;;;2.47;2.00;;;4.80;97.30;;;;;;4879957;29;20427;-74
2020/12/29 15:31:19;;;;;;;2.63;2.30;;;4.70;97.30;;;;;;4881696;29;20465;-74
2020/12/29 15:33:45;;;;;;;2.67;2.40;;;4.80;97.30;;;;;;4879839;29;20478;-74
2020/12/29 15:36:13;;;;;;;6.20;2.53;;;4.80;97.30;;;;;;4880535;29;20426;-74
2020/12/29 15:38:42;;;;;;;3.07;2.50;;;4.80;97.30;;;;;;4880463;29;20971;-74
2020/12/29 15:41:11;;;;;;;3.07;2.47;;;4.70;97.30;;;;;;4881184;29;20442;-74
2020/12/29 15:43:40;;;;;;;4.10;2.50;;;4.70;97.30;;;;;;4879937;29;20565;-75
2020/12/29 15:46:09;;;;;;;6.20;3.90;;;4.70;97.30;;;;;;4880200;29;20430;-74
2020/12/29 15:48:39;;;;;;;4.97;3.77;;;4.70;97.30;;;;;;4878157;29;20418;-75
2020/12/29 15:51:12;;;;;;;5.97;4.10;;;4.70;97.30;;;;;;4880188;29;20442;-74
2020/12/29 15:53:38;;;;;;;9.87;4.37;;;4.70;97.30;;;;;;4864730;29;20426;-75
2020/12/29 15:56:05;;;;;;;3.63;2.57;;;4.70;97.30;;;;;;4879971;29;20419;-74
2020/12/29 15:58:30;;;;;;;5.27;3.90;;;4.70;97.30;;;;;;4879818;29;20434;-74
2020/12/29 16:00:56;;;;;;;3.67;2.87;;;4.60;97.30;;;;;;4879801;29;20827;-74
2020/12/29 16:03:23;;;;;;;5.90;4.00;;;4.50;97.30;;;;;;4880697;29;20450;-75
2020/12/29 16:05:51;;;;;;;8.67;4.90;;;4.50;97.30;;;;;;4880223;29;20458;-74
2020/12/29 16:08:17;;;;;;;6.40;3.27;;;4.40;97.30;;;;;;4864243;29;20433;-75
2020/12/29 16:10:43;;;;;;;3.50;2.73;;;4.40;97.30;;;;;;4879898;29;20434;-75
2020/12/29 16:13:09;;;;;;;5.23;3.67;;;4.40;97.30;;;;;;4880076;29;20422;-74
2020/12/29 16:15:36;;;;;;;4.10;3.10;;;4.30;97.30;;;;;;4879563;29;20213;-75
2020/12/29 16:18:04;;;;;;;6.17;4.20;;;4.30;97.30;;;;;;4879582;29;20208;-75
2020/12/29 16:20:30;;;;;;;7.00;4.37;;;4.20;97.30;;;;;;4879275;29;20466;-74
2020/12/29 16:22:56;;;;;;;5.73;3.37;;;4.20;97.30;;;;;;4878940;29;20422;-75
2020/12/29 16:25:23;;;;;;;4.07;3.30;;;4.10;97.30;;;;;;4879695;29;20781;-75
2020/12/29 16:27:49;;;;;;;4.90;2.90;;;4.10;97.30;;;;;;4863724;29;20423;-75
2020/12/29 16:30:15;;;;;;;4.93;3.10;;;4.00;97.30;;;;;;4879021;29;20534;-75
2020/12/29 16:32:42;;;;;;;10.90;5.20;;;4.00;97.30;;;;;;4879070;29;20182;-75
2020/12/29 16:35:11;;;;;;;15.37;6.73;;;3.90;97.30;;;;;;4876972;29;20521;-75
2020/12/29 16:37:39;;;;;;;9.70;5.10;;;3.90;97.30;;;;;;4879276;29;20486;-75
2020/12/29 16:40:05;;;;;;;8.30;3.83;;;3.90;97.30;;;;;;4865071;29;20447;-75
2020/12/29 16:42:31;;;;;;;15.50;4.30;;;4.00;97.30;;;;;;4860715;29;20422;-75
2020/12/29 16:44:57;;;;;;;11.03;6.13;;;4.00;97.30;;;;;;4879385;29;20467;-75
2020/12/29 16:47:24;;;;;;;7.30;5.23;;;3.90;97.30;;;;;;4879312;29;20434;-75
2020/12/29 16:49:50;;;;;;;9.57;5.77;;;3.90;97.30;;;;;;4878168;29;20447;-75
2020/12/29 16:52:17;;;;;;;6.30;4.00;;;3.80;97.30;;;;;;4878403;29;20817;-75
2020/12/29 16:54:43;;;;;;;5.23;3.73;;;3.80;97.30;;;;;;4877652;29;20803;-75
2020/12/29 16:57:10;;;;;;;9.73;4.80;;;3.70;97.30;;;;;;4877885;29;20426;-74
2020/12/29 16:59:46;;;;;;;7.00;4.13;;;3.70;97.30;;;;;;5091307;27;21104;-74
2020/12/29 17:02:12;;;;;;;8.37;5.33;;;3.70;97.30;;;;;;5068664;28;20508;-74
2020/12/29 17:04:38;;;;;;;6.40;4.53;;;3.70;97.30;;;;;;5067891;28;20501;-74
2020/12/29 17:07:04;;;;;;;4.00;2.30;;;3.70;97.30;;;;;;5069595;28;20906;-72
2020/12/29 17:09:33;;;;;;;4.97;3.07;;;3.70;97.30;;;;;;5069581;28;20492;-74
2020/12/29 17:12:01;;;;;;;4.30;2.70;;;3.70;97.30;;;;;;5069572;28;20196;-74
2020/12/29 17:14:27;;;;;;;4.57;2.77;;;3.70;97.30;;;;;;5069587;28;20409;-74
2020/12/29 17:16:54;;;;;;;5.50;2.83;;;3.70;97.30;;;;;;5069116;28;20950;-74
2020/12/29 17:19:22;;;;;;;4.07;2.43;;;3.70;97.30;;;;;;5068297;28;20203;-74
2020/12/29 17:21:51;;;;;;;3.67;3.10;;;3.70;97.30;;;;;;5068299;28;20508;-74
2020/12/29 17:24:21;;;;;;;3.47;2.70;;;3.70;97.30;;;;;;5067728;28;20418;-74
2020/12/29 17:26:48;;;;;;;2.80;2.30;;;3.70;97.30;;;;;;5075949;28;20419;-74
2020/12/29 17:29:14;;;;;;;4.70;3.43;;;3.70;97.30;;;;;;5088284;28;20465;-75
2020/12/29 17:31:40;;;;;;;3.10;2.90;;;3.60;97.30;;;;;;5087790;28;20848;-74
2020/12/29 17:34:07;;;;;;;5.50;3.50;;;3.70;97.30;;;;;;5077462;28;20250;-74
2020/12/29 17:36:34;;;;;;;4.90;3.57;;;3.70;97.30;;;;;;5068193;28;20198;-75
2020/12/29 17:39:00;;;;;;;7.30;4.43;;;3.60;97.30;;;;;;5051080;28;20457;-74
2020/12/29 17:41:26;;;;;;;5.43;3.57;;;3.60;97.30;;;;;;5065306;28;20457;-75
2020/12/29 17:43:52;;;;;;;10.80;5.30;;;3.60;97.30;;;;;;5068231;28;20428;-74
2020/12/29 17:46:20;;;;;;;5.47;3.20;;;3.70;97.30;;;;;;5068864;28;20172;-74
2020/12/29 17:48:47;;;;;;;8.70;4.10;;;3.70;97.30;;;;;;5067706;28;20824;-73
2020/12/29 17:51:14;;;;;;;7.70;4.30;;;3.70;97.30;;;;;;5067984;28;20438;-74
2020/12/29 17:53:40;;;;;;;4.43;3.40;;;3.80;97.30;;;;;;5068738;28;20413;-73
2020/12/29 17:56:06;;;;;;;8.30;3.90;;;3.80;97.30;;;;;;5067596;28;20579;-74
2020/12/29 17:58:32;;;;;;;4.60;3.60;;;3.80;97.30;;;;;;5067386;28;20473;-73
2020/12/29 18:01:03;;;;;;;8.10;4.00;;;3.70;97.30;;;;;;5066557;28;20441;-74
2020/12/29 18:03:29;;;;;;;9.97;4.70;;;3.70;97.30;;;;;;5067531;28;20172;-75
2020/12/29 18:05:55;;;;;;;6.17;3.60;;;3.60;97.30;;;;;;5084983;28;20424;-74
2020/12/29 18:08:20;;;;;;;7.80;4.10;;;3.60;97.30;;;;;;5087308;28;20182;-73
2020/12/29 18:10:48;;;;;;;5.03;3.90;;;3.60;97.30;;;;;;5075796;28;20202;-74
2020/12/29 18:13:15;;;;;;;6.33;4.63;;;3.50;97.30;;;;;;5057983;28;20187;-74
2020/12/29 18:15:41;;;;;;;5.23;4.33;;;3.50;97.30;;;;;;5059288;28;20414;-73
2020/12/29 18:18:07;;;;;;;9.80;4.70;;;3.50;97.30;;;;;;5052384;28;20462;-73
2020/12/29 18:20:32;;;;;;;5.77;4.00;;;3.40;97.30;;;;;;5050010;28;20231;-73
2020/12/29 18:22:58;;;;;;;7.80;5.03;;;3.40;97.30;;;;;;5053924;28;20175;-73
2020/12/29 18:25:24;;;;;;;7.47;4.40;;;3.40;97.30;;;;;;5053441;28;20430;-74
2020/12/29 18:27:50;;;;;;;6.03;4.73;;;3.40;97.30;;;;;;5055053;28;20180;-74
2020/12/29 18:30:16;;;;;;;9.33;5.50;;;3.40;97.30;;;;;;5054182;28;20199;-73
2020/12/29 18:32:41;;;;;;;10.27;6.27;;;3.40;97.30;;;;;;5053587;28;20660;-74
2020/12/29 18:35:07;;;;;;;6.43;4.33;;;3.40;97.30;;;;;;5053691;28;20218;-74
2020/12/29 18:37:34;;;;;;;9.50;4.80;;;3.40;97.30;;;;;;5054530;28;20172;-74
2020/12/29 18:40:01;;;;;;;5.63;3.67;;;3.30;97.30;;;;;;5053278;28;20529;-74
2020/12/29 18:42:27;;;;;;;5.30;3.67;;;3.30;97.30;;;;;;5053632;28;20454;-73
2020/12/29 18:44:54;;;;;;;6.57;4.80;;;3.20;97.30;;;;;;5053212;28;20415;-74
2020/12/29 18:47:20;;;;;;;6.67;4.00;;;3.10;97.30;;;;;;5029017;28;20428;-74
2020/12/29 18:49:46;;;;;;;9.17;4.33;;;3.10;97.30;;;;;;5053351;28;20561;-74
2020/12/29 18:52:15;;;;;;;6.43;4.73;;;3.00;97.30;;;;;;5052880;28;20536;-74
2020/12/29 18:54:41;;;;;;;9.50;4.73;;;2.90;97.30;;;;;;5052841;28;20942;-74
2020/12/29 18:57:08;;;;;;;10.00;4.80;;;2.80;97.30;;;;;;5054547;28;20410;-74